Aérodrome :
LOGIN :

S'inscrire | Disclaimer

   EN    FR    IT 

 










Légende :    VFR   VFR Marginal   IFR   IFR Intensif   IFR Très Intensif
Visi : 
Plafond : 
>= 8 km
>= 3000ft
5 à 8 km
1000 à 3000 ft
1500m à 5 km
500 à 1000 ft
800 à 1500m
200 à 500 ft
< 800m
< 200 ft
Symboles :   Orages  Brouillard  Fortes neiges  Fortes précipitations  Vent > 20 kt
SIGMETs :   Divers  Orages  Givrage  Turbulence  Onde Orograph.  Cendres Volcan.







- Altitude de l'aérodrome : 375 ft
- Code IATA : MST


EHBK - Maastricht Aachen

DERNIER METAR :
  • 250625Z AUTO 06004KT 010V090 9000 FEW005 BKN006 13/11 Q1025 NOSIG

METARs EXPIRÉS :
  • 250555Z AUTO 05004KT 360V110 6000 OVC004 12/12 Q1024 NOSIG
  • 250525Z AUTO 04006KT 5000 BR SCT003 BKN005 OVC006 12/12 Q1024 NOSIG
  • 250455Z AUTO 04005KT 6000 SCT004 12/11 Q1024 TEMPO 4000 BR BKN004
  • 250425Z AUTO 02005KT 7000 NCD 11/11 Q1024 TEMPO 4000 BR BKN004
  • 250355Z AUTO 01003KT 9000 NCD 11/10 Q1024 TEMPO 4000 BR BKN004

TAF TAF EHBK
Valide du 25 à 06h jusqu'au 26 à 12h UTC


250445Z 2506/2612 01005KT 8000 NSC
PROB40 2506/2509 4000 BR BKN004
Pas de NOTAMs connus pour ce terrain.



MET'MAP, la Météo Aéronautique d'un coup d'oeil ! - Copyright ORBIFLY Décembre 2007 - Disclaimer

ORBIFLY MET'MAP TEAM :

Programmation & Développement : Alexandra Zaïnal
Conception & Développement : Baudouin d'Aumeries
Co-Programmation & Développement : Marc-Olivier Méhu
Soutien technique & logistique : Manuel Goepfert

Contact : metmap@orbifly.com




SOURCES & CREDITS :

   NOAA